createdAt,value
2022-08-20T00:02:07.601Z,23.95
2022-08-20T00:04:33.987Z,29.77
2022-08-20T00:07:00.310Z,28.75
2022-08-20T00:09:26.753Z,26.10
2022-08-20T00:11:56.327Z,26.52
2022-08-20T00:14:22.764Z,28.35
2022-08-20T00:16:49.117Z,30.10
2022-08-20T00:19:15.485Z,26.90
2022-08-20T00:21:41.801Z,27.92
2022-08-20T00:24:08.443Z,29.88
2022-08-20T00:26:34.873Z,28.33
2022-08-20T00:29:04.086Z,27.63
2022-08-20T00:31:30.411Z,29.83
2022-08-20T00:33:56.766Z,25.88
2022-08-20T00:36:32.325Z,27.45
2022-08-20T00:39:00.177Z,20.77
2022-08-20T00:41:27.350Z,22.02
2022-08-20T00:44:12.239Z,20.05
2022-08-20T00:46:39.891Z,20.88
2022-08-20T00:49:08.696Z,20.15
2022-08-20T00:51:43.605Z,23.38
2022-08-20T00:54:18.691Z,18.00
2022-08-20T00:56:49.351Z,18.23
2022-08-20T00:59:20.782Z,19.77
2022-08-20T01:01:56.147Z,18.83
2022-08-20T01:04:27.701Z,22.25
2022-08-20T01:06:54.859Z,20.67
2022-08-20T01:09:49.675Z,26.45
2022-08-20T01:12:09.680Z,22.65
2022-08-20T01:14:36.070Z,27.08
2022-08-20T01:17:06.947Z,23.52
2022-08-20T01:19:41.207Z,23.70
2022-08-20T01:22:08.992Z,23.65
2022-08-20T01:24:39.570Z,27.23
2022-08-20T01:27:06.736Z,26.45
2022-08-20T01:29:39.610Z,21.77
2022-08-20T01:32:06.963Z,23.70
2022-08-20T01:34:33.301Z,24.85
2022-08-20T01:36:59.715Z,23.27
2022-08-20T01:39:33.851Z,24.70
2022-08-20T01:42:18.083Z,26.80
2022-08-20T01:44:46.201Z,25.07
2022-08-20T01:47:23.843Z,25.33
2022-08-20T01:49:53.731Z,26.20
2022-08-20T01:52:36.545Z,25.55
2022-08-20T01:55:04.436Z,25.67
2022-08-20T01:57:30.938Z,25.83
2022-08-20T01:59:57.292Z,30.05
2022-08-20T02:02:25.679Z,25.73
2022-08-20T02:04:52.035Z,29.15
2022-08-20T02:07:21.998Z,26.23
2022-08-20T02:09:49.310Z,26.90
2022-08-20T02:12:16.346Z,29.02
2022-08-20T02:14:53.941Z,26.90
2022-08-20T02:17:22.930Z,29.25
2022-08-20T02:19:55.199Z,29.73
2022-08-20T02:22:29.676Z,26.48
2022-08-20T02:24:56.155Z,25.70
2022-08-20T02:27:22.517Z,30.30
2022-08-20T02:29:49.791Z,27.35
2022-08-20T02:32:32.538Z,29.75
2022-08-20T02:35:03.017Z,24.30
2022-08-20T02:37:29.580Z,27.73
2022-08-20T02:39:55.985Z,30.08
2022-08-20T02:42:22.409Z,30.45
2022-08-20T02:44:48.743Z,29.65
2022-08-20T02:47:15.176Z,25.27
2022-08-20T02:49:41.512Z,29.02
2022-08-20T02:52:08.176Z,22.52
2022-08-20T02:54:34.535Z,30.00
2022-08-20T02:57:00.890Z,28.88
2022-08-20T02:59:27.220Z,25.00
2022-08-20T03:02:00.260Z,26.70
2022-08-20T03:04:29.266Z,30.05
2022-08-20T03:06:56.281Z,27.67
2022-08-20T03:09:22.711Z,30.63
2022-08-20T03:11:49.067Z,29.77
2022-08-20T03:14:15.409Z,32.47
2022-08-20T03:16:41.723Z,37.22
2022-08-20T03:19:08.058Z,34.83
2022-08-20T03:21:34.388Z,31.15
2022-08-20T03:24:00.813Z,35.58
2022-08-20T03:26:27.150Z,36.45
2022-08-20T03:28:53.494Z,36.45
2022-08-20T03:31:19.847Z,39.22
2022-08-20T03:33:52.329Z,34.38
2022-08-20T03:36:20.831Z,45.63
2022-08-20T03:38:55.328Z,37.95
2022-08-20T03:41:21.809Z,39.90
2022-08-20T03:43:48.180Z,38.67
2022-08-20T03:46:23.095Z,41.05
2022-08-20T03:48:50.772Z,44.08
2022-08-20T03:51:26.006Z,37.67
2022-08-20T03:53:52.399Z,36.75
2022-08-20T03:56:18.744Z,41.95
2022-08-20T03:58:45.098Z,40.35
2022-08-20T04:01:37.101Z,44.83
2022-08-20T04:03:57.763Z,33.63
2022-08-20T04:06:24.835Z,42.75
2022-08-20T04:08:51.170Z,46.42
2022-08-20T04:11:17.510Z,36.63
2022-08-20T04:13:43.858Z,40.60
2022-08-20T04:16:13.442Z,47.58
2022-08-20T04:18:41.482Z,42.03
2022-08-20T04:21:22.539Z,43.60
2022-08-20T04:23:49.254Z,42.28
2022-08-20T04:26:15.600Z,38.28
2022-08-20T04:28:42.201Z,42.13
2022-08-20T04:31:08.540Z,49.88
2022-08-20T04:33:35.410Z,49.88
2022-08-20T04:36:03.648Z,49.85
2022-08-20T04:38:47.628Z,42.67
2022-08-20T04:41:22.509Z,51.42
2022-08-20T04:43:51.739Z,44.65
2022-08-20T04:46:18.267Z,44.50
2022-08-20T04:48:48.731Z,40.55
2022-08-20T04:51:15.598Z,43.97
2022-08-20T04:53:42.640Z,44.78
2022-08-20T04:56:09.071Z,43.20
2022-08-20T04:58:39.068Z,43.55
2022-08-20T05:01:09.178Z,49.33
2022-08-20T05:03:37.677Z,43.90
2022-08-20T05:06:06.119Z,41.38
2022-08-20T05:08:33.862Z,42.22
2022-08-20T05:11:35.012Z,48.25
2022-08-20T05:13:46.571Z,42.33
2022-08-20T05:16:13.219Z,48.92
2022-08-20T05:18:39.576Z,41.60
2022-08-20T05:21:06.186Z,50.45
2022-08-20T05:23:38.217Z,51.00
2022-08-20T05:26:04.706Z,51.05
2022-08-20T05:28:32.020Z,54.83
2022-08-20T05:31:00.864Z,48.35
2022-08-20T05:33:29.889Z,44.17
2022-08-20T05:35:57.392Z,43.17
2022-08-20T05:38:27.481Z,50.45
2022-08-20T05:40:53.877Z,47.70
2022-08-20T05:43:20.939Z,47.13
2022-08-20T05:45:50.066Z,46.58
2022-08-20T05:48:21.467Z,53.63
2022-08-20T05:50:50.175Z,49.92
2022-08-20T05:53:18.694Z,47.70
2022-08-20T05:55:45.711Z,44.78
2022-08-20T05:58:19.248Z,44.03
2022-08-20T06:00:45.658Z,43.88
2022-08-20T06:03:12.063Z,53.83
2022-08-20T06:05:38.410Z,48.78
2022-08-20T06:08:09.417Z,48.83
2022-08-20T06:10:37.023Z,44.13
2022-08-20T06:13:04.493Z,42.88
2022-08-20T06:15:31.757Z,41.00
2022-08-20T06:17:58.765Z,47.28
2022-08-20T06:20:25.719Z,45.78
2022-08-20T06:22:52.092Z,43.15
2022-08-20T06:25:18.706Z,42.35
2022-08-20T06:27:45.065Z,41.72
2022-08-20T06:30:14.961Z,45.38
2022-08-20T06:32:41.738Z,45.13
2022-08-20T06:35:10.469Z,47.03
2022-08-20T06:37:39.176Z,40.75
2022-08-20T06:40:18.340Z,46.53
2022-08-20T06:42:48.623Z,35.92
2022-08-20T06:45:18.774Z,36.90
2022-08-20T06:47:47.174Z,34.30
2022-08-20T06:50:19.662Z,34.55
2022-08-20T06:52:52.791Z,36.83
2022-08-20T06:55:20.443Z,35.92
2022-08-20T06:57:46.880Z,30.88
2022-08-20T07:00:18.052Z,25.80
2022-08-20T07:02:44.471Z,26.02
2022-08-20T07:05:10.837Z,22.20
2022-08-20T07:07:37.339Z,20.45
2022-08-20T07:10:07.454Z,17.63
2022-08-20T07:12:33.978Z,19.48
2022-08-20T07:15:00.514Z,19.65
2022-08-20T07:17:26.900Z,21.38
2022-08-20T07:19:53.242Z,22.63
2022-08-20T07:22:19.714Z,20.88
2022-08-20T07:24:49.087Z,21.30
2022-08-20T07:27:20.844Z,19.67
2022-08-20T07:29:47.202Z,21.40
2022-08-20T07:32:13.622Z,22.02
2022-08-20T07:34:41.061Z,22.75
2022-08-20T07:37:11.079Z,21.52
2022-08-20T07:39:37.467Z,19.08
2022-08-20T07:42:05.617Z,20.95
2022-08-20T07:44:32.010Z,19.55
2022-08-20T07:46:59.077Z,16.55
2022-08-20T07:49:25.622Z,18.55
2022-08-20T07:51:52.199Z,21.90
2022-08-20T07:54:18.526Z,20.17
2022-08-20T07:56:44.884Z,21.55
2022-08-20T07:59:11.222Z,19.60
2022-08-20T08:01:37.548Z,17.05
2022-08-20T08:04:04.365Z,18.85
2022-08-20T08:06:31.874Z,19.67
2022-08-20T08:09:04.770Z,20.58
2022-08-20T08:11:34.239Z,20.23
2022-08-20T08:14:01.153Z,17.67
2022-08-20T08:16:29.020Z,15.18
2022-08-20T08:18:55.762Z,16.70
2022-08-20T08:21:22.350Z,17.73
2022-08-20T08:23:48.811Z,14.88
2022-08-20T08:26:18.762Z,13.18
2022-08-20T08:28:46.688Z,11.25
2022-08-20T08:31:13.962Z,11.23
2022-08-20T08:33:40.961Z,12.25
2022-08-20T08:36:11.829Z,12.63
2022-08-20T08:38:40.870Z,10.70
2022-08-20T08:41:17.506Z,10.05
2022-08-20T08:43:46.239Z,10.77
2022-08-20T08:46:15.246Z,10.38
2022-08-20T08:48:44.155Z,8.30
2022-08-20T08:51:15.152Z,7.22
2022-08-20T08:53:46.774Z,8.23
2022-08-20T08:56:15.225Z,8.45
2022-08-20T08:58:42.973Z,5.82
2022-08-20T09:01:13.762Z,8.13
2022-08-20T09:03:59.379Z,7.43
2022-08-20T09:06:26.457Z,8.73
2022-08-20T09:08:56.553Z,8.23
2022-08-20T09:11:24.229Z,7.20
2022-08-20T09:13:52.036Z,8.25
2022-08-20T09:16:18.460Z,7.70
2022-08-20T09:18:44.947Z,10.38
2022-08-20T09:21:11.519Z,9.90
2022-08-20T09:23:38.300Z,10.10
2022-08-20T09:26:04.698Z,9.15
2022-08-20T09:28:32.523Z,9.48
2022-08-20T09:31:02.760Z,9.10
2022-08-20T09:33:30.926Z,9.40
2022-08-20T09:35:57.260Z,8.52
2022-08-20T09:38:23.987Z,9.80
2022-08-20T09:40:50.594Z,10.20
2022-08-20T09:43:16.949Z,10.13
2022-08-20T09:45:43.330Z,9.70
2022-08-20T09:48:10.299Z,13.25
2022-08-20T09:50:37.330Z,11.45
2022-08-20T09:53:05.455Z,14.50
2022-08-20T09:55:39.961Z,15.10
2022-08-20T09:58:17.001Z,11.82
2022-08-20T10:00:43.390Z,12.77
2022-08-20T10:03:09.730Z,13.75
2022-08-20T10:05:36.102Z,12.50
2022-08-20T10:08:07.604Z,9.93
2022-08-20T10:10:34.543Z,9.20
2022-08-20T10:13:01.277Z,12.07
2022-08-20T10:15:28.641Z,13.82
2022-08-20T10:17:55.027Z,13.45
2022-08-20T10:20:21.738Z,13.48
2022-08-20T10:22:48.065Z,13.02
2022-08-20T10:25:14.551Z,13.55
2022-08-20T10:27:40.886Z,11.68
2022-08-20T10:30:08.065Z,13.57
2022-08-20T10:32:34.577Z,12.13
2022-08-20T10:35:01.113Z,11.85
2022-08-20T10:37:28.195Z,9.57
2022-08-20T10:39:55.029Z,12.43
2022-08-20T10:42:21.532Z,10.40
2022-08-20T10:44:47.876Z,8.40
2022-08-20T10:47:18.904Z,6.95
2022-08-20T10:49:45.523Z,7.90
2022-08-20T10:52:11.868Z,11.23
2022-08-20T10:54:38.603Z,10.95
2022-08-20T10:57:05.230Z,8.65
2022-08-20T10:59:31.563Z,8.27
2022-08-20T11:01:57.977Z,8.23
2022-08-20T11:04:24.376Z,9.20
2022-08-20T11:06:50.727Z,7.78
2022-08-20T11:09:17.060Z,9.40
2022-08-20T11:11:43.409Z,7.88
2022-08-20T11:14:09.781Z,7.70
2022-08-20T11:16:36.119Z,14.85
2022-08-20T11:19:02.504Z,9.82
2022-08-20T11:21:28.822Z,12.18
2022-08-20T11:23:55.170Z,9.68
2022-08-20T11:26:24.710Z,12.00
2022-08-20T11:28:51.079Z,9.00
2022-08-20T11:31:17.437Z,10.60
2022-08-20T11:33:43.789Z,7.22
2022-08-20T11:36:10.159Z,9.23
2022-08-20T11:38:36.515Z,9.40
2022-08-20T11:41:02.849Z,7.60
2022-08-20T11:43:29.203Z,9.00
2022-08-20T11:45:56.265Z,7.75
2022-08-20T11:48:22.802Z,6.35
2022-08-20T11:50:50.772Z,10.13
2022-08-20T11:53:17.329Z,10.77
2022-08-20T11:55:44.040Z,7.97
2022-08-20T11:58:11.063Z,6.70
2022-08-20T12:00:37.451Z,8.98
2022-08-20T12:03:09.272Z,6.07
2022-08-20T12:05:37.638Z,4.78
2022-08-20T12:08:04.276Z,4.78
2022-08-20T12:10:31.334Z,4.35
2022-08-20T12:12:57.962Z,3.65
2022-08-20T12:15:24.620Z,5.00
2022-08-20T12:17:51.005Z,5.07
2022-08-20T12:20:17.412Z,4.55
2022-08-20T12:22:43.826Z,6.63
2022-08-20T12:25:10.675Z,4.40
2022-08-20T12:27:37.824Z,4.88
2022-08-20T12:30:13.925Z,4.47
2022-08-20T12:32:40.878Z,10.02
2022-08-20T12:35:08.712Z,5.28
2022-08-20T12:37:35.823Z,6.47
2022-08-20T12:40:07.141Z,7.35
2022-08-20T12:42:33.753Z,5.93
2022-08-20T12:45:00.918Z,8.35
2022-08-20T12:47:33.323Z,6.93
2022-08-20T12:50:17.231Z,10.00
2022-08-20T12:52:44.813Z,3.92
2022-08-20T12:55:14.062Z,7.38
2022-08-20T12:57:43.649Z,6.07
2022-08-20T13:00:13.422Z,4.85
2022-08-20T13:02:40.032Z,3.22
2022-08-20T13:05:11.320Z,5.47
2022-08-20T13:07:38.653Z,4.75
2022-08-20T13:10:07.503Z,3.70
2022-08-20T13:12:34.319Z,5.65
2022-08-20T13:15:00.774Z,4.72
2022-08-20T13:17:38.967Z,6.78
2022-08-20T13:20:16.780Z,4.35
2022-08-20T13:22:44.311Z,4.05
2022-08-20T13:25:15.127Z,5.20
2022-08-20T13:27:42.474Z,4.32
2022-08-20T13:30:13.378Z,4.93
2022-08-20T13:32:41.036Z,4.72
2022-08-20T13:35:08.330Z,4.00
2022-08-20T13:37:34.888Z,5.38
2022-08-20T13:40:01.848Z,6.78
2022-08-20T13:42:28.353Z,5.55
2022-08-20T13:44:54.793Z,5.93
2022-08-20T13:47:29.819Z,7.10
2022-08-20T13:49:58.002Z,5.15
2022-08-20T13:52:25.950Z,5.03
2022-08-20T13:54:52.681Z,7.03
2022-08-20T13:57:21.256Z,7.68
2022-08-20T13:59:50.482Z,3.88
2022-08-20T14:02:17.903Z,3.55
2022-08-20T14:04:44.702Z,4.18
2022-08-20T14:07:13.130Z,2.78
2022-08-20T14:09:44.444Z,4.10
2022-08-20T14:12:12.030Z,6.28
2022-08-20T14:14:38.623Z,4.30
2022-08-20T14:17:18.641Z,4.32
2022-08-20T14:19:47.093Z,6.72
2022-08-20T14:22:13.838Z,3.78
2022-08-20T14:24:40.315Z,4.13
2022-08-20T14:27:08.598Z,6.00
2022-08-20T14:29:37.451Z,6.28
2022-08-20T14:32:05.154Z,5.70
2022-08-20T14:34:31.929Z,6.88
2022-08-20T14:37:13.835Z,4.55
2022-08-20T14:39:41.214Z,9.43
2022-08-20T14:42:07.966Z,9.23
2022-08-20T14:44:34.476Z,5.00
2022-08-20T14:47:10.839Z,6.75
2022-08-20T14:49:37.288Z,7.50
2022-08-20T14:52:03.989Z,6.95
2022-08-20T14:54:30.366Z,5.63
2022-08-20T14:57:01.949Z,10.18
2022-08-20T14:59:28.846Z,6.35
2022-08-20T15:01:55.221Z,9.27
2022-08-20T15:04:23.700Z,10.18
2022-08-20T15:06:52.753Z,9.85
2022-08-20T15:09:21.423Z,7.10
2022-08-20T15:11:47.826Z,8.80
2022-08-20T15:14:15.076Z,13.07
2022-08-20T15:16:44.931Z,7.60
2022-08-20T15:19:11.301Z,7.95
2022-08-20T15:21:45.240Z,10.48
2022-08-20T15:24:18.841Z,7.50
2022-08-20T15:26:46.500Z,7.57
2022-08-20T15:29:22.717Z,10.55
2022-08-20T15:31:49.491Z,6.78
2022-08-20T15:34:18.136Z,7.10
2022-08-20T15:36:45.210Z,5.65
2022-08-20T15:39:11.574Z,8.77
2022-08-20T15:41:37.942Z,7.35
2022-08-20T15:44:04.623Z,7.93
2022-08-20T15:46:36.153Z,8.18
2022-08-20T15:49:11.087Z,9.45
2022-08-20T15:51:47.544Z,12.35
2022-08-20T15:54:20.305Z,9.07
2022-08-20T15:57:11.461Z,10.73
2022-08-20T15:59:54.543Z,7.32
2022-08-20T16:02:42.790Z,9.57
2022-08-20T16:05:25.488Z,9.05
2022-08-20T16:07:56.274Z,7.18
2022-08-20T16:10:26.900Z,15.07
2022-08-20T16:12:57.666Z,9.02
2022-08-20T16:15:30.020Z,8.02
2022-08-20T16:18:07.502Z,7.95
2022-08-20T16:20:48.000Z,7.43
2022-08-20T16:23:20.184Z,4.50
2022-08-20T16:26:24.429Z,7.68
2022-08-20T16:29:10.003Z,5.82
2022-08-20T16:31:47.155Z,5.88
2022-08-20T16:34:34.440Z,5.80
2022-08-20T16:37:22.689Z,7.70
2022-08-20T16:39:59.056Z,6.47
2022-08-20T16:42:33.147Z,5.28
2022-08-20T16:45:00.674Z,4.78
2022-08-20T16:47:31.029Z,5.43
2022-08-20T16:50:08.890Z,3.08
2022-08-20T16:52:35.310Z,6.30
2022-08-20T16:55:01.743Z,7.30
2022-08-20T16:57:29.922Z,7.72
2022-08-20T17:00:11.989Z,7.18
2022-08-20T17:03:01.626Z,11.20
2022-08-20T17:05:47.526Z,7.38
2022-08-20T17:08:28.871Z,8.32
2022-08-20T17:11:01.052Z,8.77
2022-08-20T17:13:31.365Z,6.97
2022-08-20T17:16:01.669Z,6.63
2022-08-20T17:18:36.999Z,7.07
2022-08-20T17:21:12.549Z,7.93
2022-08-20T17:23:55.592Z,7.05
2022-08-20T17:26:31.254Z,6.25
2022-08-20T17:29:00.828Z,7.22
2022-08-20T17:31:40.177Z,8.43
2022-08-20T17:34:28.647Z,8.52
2022-08-20T17:37:08.147Z,6.35
2022-08-20T17:39:34.669Z,9.52
2022-08-20T17:42:09.070Z,10.18
2022-08-20T17:44:42.227Z,9.38
2022-08-20T17:47:14.127Z,8.68
2022-08-20T17:50:00.494Z,6.70
2022-08-20T17:52:44.074Z,10.90
2022-08-20T17:55:12.396Z,9.40
2022-08-20T17:57:42.957Z,7.65
2022-08-20T18:00:14.760Z,9.95
2022-08-20T18:02:42.654Z,9.98
2022-08-20T18:05:15.935Z,6.35
2022-08-20T18:08:04.844Z,8.68
2022-08-20T18:10:42.174Z,7.00
2022-08-20T18:13:19.475Z,8.82
2022-08-20T18:15:58.265Z,7.57
2022-08-20T18:18:56.521Z,7.28
2022-08-20T18:21:50.172Z,5.18
2022-08-20T18:24:36.313Z,5.65
2022-08-20T18:27:09.226Z,3.25
2022-08-20T18:29:40.975Z,5.82
2022-08-20T18:32:20.464Z,4.47
2022-08-20T18:34:46.853Z,6.78
2022-08-20T18:37:13.096Z,6.40
2022-08-20T18:39:45.172Z,7.80
2022-08-20T18:42:17.287Z,6.82
2022-08-20T18:44:45.940Z,6.00
2022-08-20T18:47:23.137Z,5.00
2022-08-20T18:50:16.678Z,5.43
2022-08-20T18:52:49.821Z,5.53
2022-08-20T18:55:42.746Z,5.82
2022-08-20T18:58:33.545Z,5.72
2022-08-20T19:01:03.362Z,7.78
2022-08-20T19:03:35.994Z,8.57
2022-08-20T19:06:08.693Z,10.15
2022-08-20T19:08:51.174Z,5.85
2022-08-20T19:11:50.110Z,4.90
2022-08-20T19:14:21.891Z,7.88
2022-08-20T19:16:59.838Z,8.25
2022-08-20T19:19:32.215Z,7.80
2022-08-20T19:22:00.911Z,8.00
2022-08-20T19:24:31.291Z,10.45
2022-08-20T19:27:04.654Z,12.45
2022-08-20T19:29:37.015Z,7.10
2022-08-20T19:32:08.490Z,7.57
2022-08-20T19:34:36.577Z,8.60
2022-08-20T19:37:34.739Z,9.20
2022-08-20T19:39:56.891Z,8.05
2022-08-20T19:42:40.482Z,26.35
2022-08-20T19:45:12.236Z,8.10
2022-08-20T19:48:04.538Z,7.25
2022-08-20T19:50:57.407Z,8.38
2022-08-20T19:53:32.614Z,6.40
2022-08-20T19:56:10.717Z,7.57
2022-08-20T19:58:37.392Z,8.02
2022-08-20T20:01:09.017Z,8.75
2022-08-20T20:03:37.281Z,8.73
2022-08-20T20:06:16.770Z,8.18
2022-08-20T20:08:57.913Z,6.05
2022-08-20T20:11:29.887Z,8.27
2022-08-20T20:14:05.114Z,8.45
2022-08-20T20:16:32.802Z,7.50
2022-08-20T20:19:24.611Z,6.45
2022-08-20T20:21:50.118Z,8.07
2022-08-20T20:24:29.326Z,7.47
2022-08-20T20:26:59.129Z,10.05
2022-08-20T20:29:28.484Z,11.73
2022-08-20T20:31:57.624Z,9.77
2022-08-20T20:34:56.182Z,6.18
2022-08-20T20:37:49.474Z,9.80
2022-08-20T20:40:30.949Z,7.90
2022-08-20T20:43:10.636Z,6.65
2022-08-20T20:48:20.858Z,8.32
2022-08-20T20:50:48.489Z,11.13
2022-08-20T20:53:25.619Z,8.80
2022-08-20T20:56:25.970Z,7.75
2022-08-20T20:58:55.641Z,6.32
2022-08-20T21:01:27.273Z,9.48
2022-08-20T21:04:09.106Z,7.45
2022-08-20T21:06:35.495Z,10.82
2022-08-20T21:09:02.130Z,7.75
2022-08-20T21:11:28.450Z,11.65
2022-08-20T21:13:54.842Z,8.77
2022-08-20T21:16:21.223Z,10.18
2022-08-20T21:18:47.652Z,10.68
2022-08-20T21:21:14.499Z,9.07
2022-08-20T21:23:41.662Z,8.13
2022-08-20T21:26:08.746Z,10.13
2022-08-20T21:28:35.235Z,9.18
2022-08-20T21:31:01.767Z,9.30
2022-08-20T21:33:28.116Z,12.00
2022-08-20T21:35:54.516Z,11.32
2022-08-20T21:38:20.863Z,9.93
2022-08-20T21:40:47.283Z,12.02
2022-08-20T21:43:13.846Z,7.97
2022-08-20T21:45:41.043Z,12.57
2022-08-20T21:48:10.542Z,7.40
2022-08-20T21:50:37.122Z,10.90
2022-08-20T21:53:12.352Z,8.52
2022-08-20T21:55:40.476Z,8.65
2022-08-20T21:58:07.690Z,8.95
2022-08-20T22:00:55.857Z,8.73
2022-08-20T22:03:28.746Z,10.63
2022-08-20T22:05:58.297Z,8.00
2022-08-20T22:08:28.370Z,9.15
2022-08-20T22:10:56.136Z,9.40
2022-08-20T22:13:23.938Z,9.75
2022-08-20T22:15:50.346Z,14.70
2022-08-20T22:18:17.152Z,8.48
2022-08-20T22:20:43.847Z,8.05
2022-08-20T22:23:10.823Z,11.43
2022-08-20T22:25:37.223Z,10.90
2022-08-20T22:28:03.892Z,10.20
2022-08-20T22:30:30.356Z,9.85
2022-08-20T22:33:07.717Z,14.27
2022-08-20T22:35:34.603Z,12.43
2022-08-20T22:38:01.163Z,11.32
2022-08-20T22:40:27.511Z,11.50
2022-08-20T22:42:53.909Z,12.95
2022-08-20T22:45:20.356Z,9.77
2022-08-20T22:47:46.854Z,9.40
2022-08-20T22:50:14.842Z,12.30
2022-08-20T22:52:41.396Z,10.13
2022-08-20T22:55:09.450Z,10.52
2022-08-20T22:57:37.108Z,8.93
2022-08-20T23:00:07.914Z,9.27
2022-08-20T23:02:34.642Z,12.98
2022-08-20T23:05:01.021Z,12.40
2022-08-20T23:07:27.729Z,12.23
2022-08-20T23:09:54.075Z,12.50
2022-08-20T23:12:20.453Z,10.30
2022-08-20T23:14:46.798Z,10.20
2022-08-20T23:17:17.242Z,12.18
2022-08-20T23:19:44.622Z,11.93
2022-08-20T23:22:11.534Z,10.77
2022-08-20T23:24:38.079Z,13.88
2022-08-20T23:27:08.194Z,12.40
2022-08-20T23:29:34.970Z,11.60
2022-08-20T23:32:01.743Z,10.00
2022-08-20T23:34:28.166Z,14.02
2022-08-20T23:36:55.984Z,10.18
2022-08-20T23:39:23.421Z,9.77
2022-08-20T23:41:49.773Z,13.90
2022-08-20T23:44:26.138Z,11.32
2022-08-20T23:46:58.744Z,13.60
2022-08-20T23:49:26.108Z,16.48
2022-08-20T23:51:52.596Z,14.45
2022-08-20T23:54:18.962Z,12.50
2022-08-20T23:56:45.418Z,7.43
2022-08-20T23:59:11.818Z,12.48
